sensor_id;sensor_type;location;lat;lon;timestamp;P1;durP1;ratioP1;P2;durP2;ratioP2
63818;SDS011;49970;54.976;73.248;2023-02-18T00:01:51;56.72;;;26.67;;
63818;SDS011;49970;54.976;73.248;2023-02-18T00:04:18;70.82;;;26.40;;
63818;SDS011;49970;54.976;73.248;2023-02-18T00:06:44;44.97;;;24.67;;
63818;SDS011;49970;54.976;73.248;2023-02-18T00:09:10;56.28;;;25.92;;
63818;SDS011;49970;54.976;73.248;2023-02-18T00:11:37;62.28;;;29.33;;
63818;SDS011;49970;54.976;73.248;2023-02-18T00:14:10;55.95;;;25.52;;
63818;SDS011;49970;54.976;73.248;2023-02-18T00:16:38;60.30;;;26.80;;
63818;SDS011;49970;54.976;73.248;2023-02-18T00:19:06;41.92;;;23.52;;
63818;SDS011;49970;54.976;73.248;2023-02-18T00:21:34;61.42;;;27.77;;
63818;SDS011;49970;54.976;73.248;2023-02-18T00:24:01;55.67;;;28.85;;
63818;SDS011;49970;54.976;73.248;2023-02-18T00:26:30;51.13;;;24.25;;
63818;SDS011;49970;54.976;73.248;2023-02-18T00:29:06;50.38;;;24.58;;
63818;SDS011;49970;54.976;73.248;2023-02-18T00:31:34;52.30;;;24.73;;
63818;SDS011;49970;54.976;73.248;2023-02-18T00:34:02;47.40;;;24.08;;
63818;SDS011;49970;54.976;73.248;2023-02-18T00:36:38;55.05;;;25.40;;
63818;SDS011;49970;54.976;73.248;2023-02-18T00:39:05;42.30;;;22.42;;
63818;SDS011;49970;54.976;73.248;2023-02-18T00:41:33;55.72;;;24.73;;
63818;SDS011;49970;54.976;73.248;2023-02-18T00:44:00;46.55;;;22.67;;
63818;SDS011;49970;54.976;73.248;2023-02-18T00:46:27;49.92;;;22.42;;
63818;SDS011;49970;54.976;73.248;2023-02-18T00:48:54;55.67;;;25.75;;
63818;SDS011;49970;54.976;73.248;2023-02-18T00:51:21;58.70;;;25.63;;
63818;SDS011;49970;54.976;73.248;2023-02-18T00:53:59;53.53;;;24.85;;
63818;SDS011;49970;54.976;73.248;2023-02-18T00:56:25;50.90;;;24.70;;
63818;SDS011;49970;54.976;73.248;2023-02-18T00:58:51;44.10;;;23.88;;
63818;SDS011;49970;54.976;73.248;2023-02-18T01:01:18;49.15;;;24.73;;
63818;SDS011;49970;54.976;73.248;2023-02-18T01:03:54;65.13;;;26.58;;
63818;SDS011;49970;54.976;73.248;2023-02-18T01:06:21;57.33;;;25.77;;
63818;SDS011;49970;54.976;73.248;2023-02-18T01:08:47;50.65;;;24.17;;
63818;SDS011;49970;54.976;73.248;2023-02-18T01:11:14;49.53;;;24.23;;
63818;SDS011;49970;54.976;73.248;2023-02-18T01:13:41;57.05;;;24.75;;
63818;SDS011;49970;54.976;73.248;2023-02-18T01:16:07;55.05;;;25.63;;
63818;SDS011;49970;54.976;73.248;2023-02-18T01:18:34;53.88;;;28.17;;
63818;SDS011;49970;54.976;73.248;2023-02-18T01:21:06;51.55;;;25.48;;
63818;SDS011;49970;54.976;73.248;2023-02-18T01:23:38;50.35;;;23.02;;
63818;SDS011;49970;54.976;73.248;2023-02-18T01:26:06;48.80;;;24.48;;
63818;SDS011;49970;54.976;73.248;2023-02-18T01:28:33;48.40;;;23.55;;
63818;SDS011;49970;54.976;73.248;2023-02-18T01:31:03;45.97;;;24.13;;
63818;SDS011;49970;54.976;73.248;2023-02-18T01:33:36;52.08;;;24.25;;
63818;SDS011;49970;54.976;73.248;2023-02-18T01:36:13;50.33;;;25.33;;
63818;SDS011;49970;54.976;73.248;2023-02-18T01:38:39;51.90;;;25.48;;
63818;SDS011;49970;54.976;73.248;2023-02-18T01:41:16;39.47;;;21.73;;
63818;SDS011;49970;54.976;73.248;2023-02-18T01:43:42;45.63;;;23.83;;
63818;SDS011;49970;54.976;73.248;2023-02-18T01:46:12;56.67;;;27.30;;
63818;SDS011;49970;54.976;73.248;2023-02-18T01:48:48;52.08;;;26.30;;
63818;SDS011;49970;54.976;73.248;2023-02-18T01:51:32;53.35;;;24.55;;
63818;SDS011;49970;54.976;73.248;2023-02-18T01:57:06;44.92;;;24.20;;
63818;SDS011;49970;54.976;73.248;2023-02-18T01:59:38;60.70;;;25.08;;
63818;SDS011;49970;54.976;73.248;2023-02-18T02:02:27;48.17;;;26.48;;
63818;SDS011;49970;54.976;73.248;2023-02-18T02:04:54;51.28;;;25.10;;
63818;SDS011;49970;54.976;73.248;2023-02-18T02:07:21;51.00;;;26.42;;
63818;SDS011;49970;54.976;73.248;2023-02-18T02:09:55;58.63;;;26.00;;
63818;SDS011;49970;54.976;73.248;2023-02-18T02:15:27;57.47;;;24.40;;
63818;SDS011;49970;54.976;73.248;2023-02-18T02:21:18;51.50;;;26.60;;
63818;SDS011;49970;54.976;73.248;2023-02-18T02:24:12;62.03;;;26.05;;
63818;SDS011;49970;54.976;73.248;2023-02-18T02:26:57;51.30;;;25.25;;
63818;SDS011;49970;54.976;73.248;2023-02-18T02:44:01;55.10;;;25.60;;
63818;SDS011;49970;54.976;73.248;2023-02-18T02:46:47;49.92;;;26.20;;
63818;SDS011;49970;54.976;73.248;2023-02-18T02:52:21;59.10;;;25.88;;
63818;SDS011;49970;54.976;73.248;2023-02-18T02:54:55;64.95;;;26.60;;
63818;SDS011;49970;54.976;73.248;2023-02-18T03:00:00;51.90;;;25.20;;
63818;SDS011;49970;54.976;73.248;2023-02-18T03:11:25;53.63;;;24.02;;
63818;SDS011;49970;54.976;73.248;2023-02-18T03:14:11;56.88;;;27.35;;
63818;SDS011;49970;54.976;73.248;2023-02-18T03:16:58;68.13;;;28.23;;
63818;SDS011;49970;54.976;73.248;2023-02-18T03:19:52;61.63;;;29.15;;
63818;SDS011;49970;54.976;73.248;2023-02-18T03:22:26;78.15;;;32.35;;
63818;SDS011;49970;54.976;73.248;2023-02-18T03:25:09;71.95;;;32.42;;
63818;SDS011;49970;54.976;73.248;2023-02-18T03:31:02;72.55;;;33.88;;
63818;SDS011;49970;54.976;73.248;2023-02-18T03:33:38;72.13;;;34.35;;
63818;SDS011;49970;54.976;73.248;2023-02-18T03:36:15;70.07;;;31.00;;
63818;SDS011;49970;54.976;73.248;2023-02-18T03:38:52;73.68;;;31.90;;
63818;SDS011;49970;54.976;73.248;2023-02-18T03:41:33;75.03;;;30.05;;
63818;SDS011;49970;54.976;73.248;2023-02-18T03:44:01;74.13;;;33.92;;
63818;SDS011;49970;54.976;73.248;2023-02-18T03:46:40;84.13;;;38.10;;
63818;SDS011;49970;54.976;73.248;2023-02-18T03:49:20;93.85;;;41.85;;
63818;SDS011;49970;54.976;73.248;2023-02-18T03:51:48;96.75;;;39.53;;
63818;SDS011;49970;54.976;73.248;2023-02-18T03:54:14;87.10;;;38.40;;
63818;SDS011;49970;54.976;73.248;2023-02-18T03:56:42;105.80;;;43.30;;
63818;SDS011;49970;54.976;73.248;2023-02-18T03:59:13;104.93;;;42.55;;
63818;SDS011;49970;54.976;73.248;2023-02-18T04:01:39;103.93;;;42.97;;
63818;SDS011;49970;54.976;73.248;2023-02-18T04:04:06;128.82;;;47.78;;
63818;SDS011;49970;54.976;73.248;2023-02-18T04:06:33;83.50;;;33.70;;
63818;SDS011;49970;54.976;73.248;2023-02-18T04:09:00;75.97;;;31.48;;
63818;SDS011;49970;54.976;73.248;2023-02-18T04:11:36;59.47;;;28.45;;
63818;SDS011;49970;54.976;73.248;2023-02-18T04:14:14;52.92;;;28.00;;
63818;SDS011;49970;54.976;73.248;2023-02-18T04:16:40;59.85;;;26.52;;
63818;SDS011;49970;54.976;73.248;2023-02-18T04:19:07;52.00;;;26.25;;
63818;SDS011;49970;54.976;73.248;2023-02-18T04:21:39;65.53;;;28.63;;
63818;SDS011;49970;54.976;73.248;2023-02-18T04:24:11;79.32;;;31.70;;
63818;SDS011;49970;54.976;73.248;2023-02-18T04:26:37;74.20;;;29.48;;
63818;SDS011;49970;54.976;73.248;2023-02-18T04:29:13;55.92;;;27.20;;
63818;SDS011;49970;54.976;73.248;2023-02-18T04:31:39;62.65;;;29.33;;
63818;SDS011;49970;54.976;73.248;2023-02-18T04:34:06;55.63;;;29.33;;
63818;SDS011;49970;54.976;73.248;2023-02-18T04:36:32;69.30;;;30.17;;
63818;SDS011;49970;54.976;73.248;2023-02-18T04:38:59;52.42;;;26.80;;
63818;SDS011;49970;54.976;73.248;2023-02-18T04:41:25;59.50;;;26.75;;
63818;SDS011;49970;54.976;73.248;2023-02-18T04:43:51;62.25;;;29.10;;
63818;SDS011;49970;54.976;73.248;2023-02-18T04:46:17;71.53;;;28.45;;
63818;SDS011;49970;54.976;73.248;2023-02-18T04:48:49;52.00;;;27.48;;
63818;SDS011;49970;54.976;73.248;2023-02-18T04:51:15;65.07;;;29.67;;
63818;SDS011;49970;54.976;73.248;2023-02-18T04:53:41;63.25;;;29.30;;
63818;SDS011;49970;54.976;73.248;2023-02-18T04:56:07;57.30;;;28.85;;
63818;SDS011;49970;54.976;73.248;2023-02-18T04:58:44;56.10;;;28.38;;
63818;SDS011;49970;54.976;73.248;2023-02-18T05:01:10;58.83;;;26.27;;
63818;SDS011;49970;54.976;73.248;2023-02-18T05:03:46;62.90;;;29.10;;
63818;SDS011;49970;54.976;73.248;2023-02-18T05:06:13;56.83;;;26.90;;
63818;SDS011;49970;54.976;73.248;2023-02-18T05:08:39;66.13;;;30.08;;
63818;SDS011;49970;54.976;73.248;2023-02-18T05:11:08;64.53;;;30.30;;
63818;SDS011;49970;54.976;73.248;2023-02-18T05:13:35;73.20;;;30.30;;
63818;SDS011;49970;54.976;73.248;2023-02-18T05:16:01;71.05;;;28.23;;
63818;SDS011;49970;54.976;73.248;2023-02-18T05:18:27;61.95;;;28.23;;
63818;SDS011;49970;54.976;73.248;2023-02-18T05:20:53;61.42;;;29.35;;
63818;SDS011;49970;54.976;73.248;2023-02-18T05:23:24;59.20;;;27.38;;
63818;SDS011;49970;54.976;73.248;2023-02-18T05:25:50;67.85;;;28.05;;
63818;SDS011;49970;54.976;73.248;2023-02-18T05:28:17;68.75;;;29.55;;
63818;SDS011;49970;54.976;73.248;2023-02-18T05:30:43;59.58;;;26.25;;
63818;SDS011;49970;54.976;73.248;2023-02-18T05:33:09;63.38;;;27.58;;
63818;SDS011;49970;54.976;73.248;2023-02-18T05:35:35;71.20;;;29.65;;
63818;SDS011;49970;54.976;73.248;2023-02-18T05:38:02;62.35;;;27.88;;
63818;SDS011;49970;54.976;73.248;2023-02-18T05:40:28;68.20;;;27.35;;
63818;SDS011;49970;54.976;73.248;2023-02-18T05:42:54;65.55;;;29.10;;
63818;SDS011;49970;54.976;73.248;2023-02-18T05:45:31;61.17;;;27.85;;
63818;SDS011;49970;54.976;73.248;2023-02-18T05:47:57;72.85;;;27.40;;
63818;SDS011;49970;54.976;73.248;2023-02-18T05:50:33;57.17;;;27.35;;
63818;SDS011;49970;54.976;73.248;2023-02-18T05:53:06;61.03;;;26.95;;
63818;SDS011;49970;54.976;73.248;2023-02-18T05:55:37;62.67;;;28.05;;
63818;SDS011;49970;54.976;73.248;2023-02-18T05:58:04;72.90;;;28.95;;
63818;SDS011;49970;54.976;73.248;2023-02-18T06:00:31;75.50;;;26.50;;
63818;SDS011;49970;54.976;73.248;2023-02-18T06:02:57;57.00;;;24.33;;
63818;SDS011;49970;54.976;73.248;2023-02-18T06:05:24;70.07;;;28.38;;
63818;SDS011;49970;54.976;73.248;2023-02-18T06:08:01;68.75;;;29.27;;
63818;SDS011;49970;54.976;73.248;2023-02-18T06:10:27;75.68;;;29.10;;
63818;SDS011;49970;54.976;73.248;2023-02-18T06:12:59;63.38;;;28.70;;
63818;SDS011;49970;54.976;73.248;2023-02-18T06:15:36;69.43;;;28.15;;
63818;SDS011;49970;54.976;73.248;2023-02-18T06:18:03;74.38;;;27.75;;
63818;SDS011;49970;54.976;73.248;2023-02-18T06:20:30;64.78;;;29.77;;
63818;SDS011;49970;54.976;73.248;2023-02-18T06:23:01;78.20;;;29.08;;
63818;SDS011;49970;54.976;73.248;2023-02-18T06:25:37;58.63;;;29.45;;
63818;SDS011;49970;54.976;73.248;2023-02-18T06:28:04;55.20;;;28.08;;
63818;SDS011;49970;54.976;73.248;2023-02-18T06:30:31;55.95;;;24.92;;
63818;SDS011;49970;54.976;73.248;2023-02-18T06:32:57;60.13;;;29.08;;
63818;SDS011;49970;54.976;73.248;2023-02-18T06:35:29;52.60;;;26.95;;
63818;SDS011;49970;54.976;73.248;2023-02-18T06:37:55;65.20;;;26.50;;
63818;SDS011;49970;54.976;73.248;2023-02-18T06:40:31;72.07;;;29.33;;
63818;SDS011;49970;54.976;73.248;2023-02-18T06:42:58;70.15;;;28.52;;
63818;SDS011;49970;54.976;73.248;2023-02-18T06:45:27;58.78;;;28.85;;
63818;SDS011;49970;54.976;73.248;2023-02-18T06:47:53;63.60;;;28.02;;
63818;SDS011;49970;54.976;73.248;2023-02-18T06:50:19;55.80;;;26.55;;
63818;SDS011;49970;54.976;73.248;2023-02-18T06:52:46;65.20;;;28.05;;
63818;SDS011;49970;54.976;73.248;2023-02-18T06:55:12;52.40;;;26.85;;
63818;SDS011;49970;54.976;73.248;2023-02-18T06:57:38;63.78;;;29.13;;
63818;SDS011;49970;54.976;73.248;2023-02-18T07:00:09;66.43;;;29.27;;
63818;SDS011;49970;54.976;73.248;2023-02-18T07:02:36;60.97;;;28.48;;
63818;SDS011;49970;54.976;73.248;2023-02-18T07:05:02;71.47;;;31.08;;
63818;SDS011;49970;54.976;73.248;2023-02-18T07:07:38;60.38;;;28.17;;
63818;SDS011;49970;54.976;73.248;2023-02-18T07:10:14;61.70;;;28.73;;
63818;SDS011;49970;54.976;73.248;2023-02-18T07:12:41;67.03;;;27.80;;
63818;SDS011;49970;54.976;73.248;2023-02-18T07:15:07;65.93;;;27.42;;
63818;SDS011;49970;54.976;73.248;2023-02-18T07:17:34;78.20;;;31.55;;
63818;SDS011;49970;54.976;73.248;2023-02-18T07:20:00;67.15;;;26.30;;
63818;SDS011;49970;54.976;73.248;2023-02-18T07:22:26;64.30;;;29.92;;
63818;SDS011;49970;54.976;73.248;2023-02-18T07:24:53;63.20;;;29.40;;
63818;SDS011;49970;54.976;73.248;2023-02-18T07:27:19;77.07;;;29.88;;
63818;SDS011;49970;54.976;73.248;2023-02-18T07:29:47;72.32;;;31.30;;
63818;SDS011;49970;54.976;73.248;2023-02-18T07:32:14;61.35;;;30.48;;
63818;SDS011;49970;54.976;73.248;2023-02-18T07:34:42;73.80;;;32.55;;
63818;SDS011;49970;54.976;73.248;2023-02-18T07:37:20;73.82;;;34.38;;
63818;SDS011;49970;54.976;73.248;2023-02-18T07:39:46;86.20;;;35.22;;
63818;SDS011;49970;54.976;73.248;2023-02-18T07:42:12;72.00;;;31.40;;
63818;SDS011;49970;54.976;73.248;2023-02-18T07:44:39;69.72;;;32.58;;
63818;SDS011;49970;54.976;73.248;2023-02-18T07:47:06;74.25;;;32.97;;
63818;SDS011;49970;54.976;73.248;2023-02-18T07:49:35;78.10;;;31.15;;
63818;SDS011;49970;54.976;73.248;2023-02-18T07:52:01;79.60;;;31.95;;
63818;SDS011;49970;54.976;73.248;2023-02-18T07:59:48;67.78;;;29.35;;
63818;SDS011;49970;54.976;73.248;2023-02-18T08:03:39;61.80;;;28.75;;
63818;SDS011;49970;54.976;73.248;2023-02-18T08:07:28;81.70;;;30.80;;
63818;SDS011;49970;54.976;73.248;2023-02-18T08:11:21;63.40;;;26.45;;
63818;SDS011;49970;54.976;73.248;2023-02-18T08:15:12;70.82;;;27.98;;
63818;SDS011;49970;54.976;73.248;2023-02-18T08:19:01;63.20;;;26.20;;
63818;SDS011;49970;54.976;73.248;2023-02-18T08:22:50;57.70;;;26.48;;
63818;SDS011;49970;54.976;73.248;2023-02-18T08:26:42;68.57;;;27.42;;
63818;SDS011;49970;54.976;73.248;2023-02-18T08:30:33;65.18;;;27.25;;
63818;SDS011;49970;54.976;73.248;2023-02-18T08:32:59;54.28;;;26.33;;
63818;SDS011;49970;54.976;73.248;2023-02-18T08:35:36;67.28;;;26.40;;
63818;SDS011;49970;54.976;73.248;2023-02-18T08:38:02;59.05;;;26.30;;
63818;SDS011;49970;54.976;73.248;2023-02-18T08:40:28;65.18;;;29.42;;
63818;SDS011;49970;54.976;73.248;2023-02-18T08:42:54;70.32;;;29.10;;
63818;SDS011;49970;54.976;73.248;2023-02-18T08:45:21;61.10;;;27.85;;
63818;SDS011;49970;54.976;73.248;2023-02-18T08:47:47;63.38;;;26.40;;
63818;SDS011;49970;54.976;73.248;2023-02-18T08:50:13;56.35;;;27.98;;
63818;SDS011;49970;54.976;73.248;2023-02-18T08:52:40;56.95;;;27.38;;
63818;SDS011;49970;54.976;73.248;2023-02-18T08:55:08;59.85;;;31.02;;
63818;SDS011;49970;54.976;73.248;2023-02-18T08:57:45;59.40;;;25.98;;
63818;SDS011;49970;54.976;73.248;2023-02-18T09:00:15;87.13;;;29.88;;
63818;SDS011;49970;54.976;73.248;2023-02-18T09:02:42;68.18;;;30.02;;
63818;SDS011;49970;54.976;73.248;2023-02-18T09:05:08;82.25;;;36.53;;
63818;SDS011;49970;54.976;73.248;2023-02-18T09:07:35;64.60;;;29.67;;
63818;SDS011;49970;54.976;73.248;2023-02-18T09:10:02;82.82;;;37.30;;
63818;SDS011;49970;54.976;73.248;2023-02-18T09:12:29;89.75;;;41.75;;
63818;SDS011;49970;54.976;73.248;2023-02-18T09:14:55;113.78;;;46.67;;
63818;SDS011;49970;54.976;73.248;2023-02-18T09:17:25;86.32;;;35.67;;
63818;SDS011;49970;54.976;73.248;2023-02-18T09:19:57;73.18;;;32.85;;
63818;SDS011;49970;54.976;73.248;2023-02-18T09:22:23;70.35;;;32.83;;
63818;SDS011;49970;54.976;73.248;2023-02-18T09:24:56;76.63;;;36.05;;
63818;SDS011;49970;54.976;73.248;2023-02-18T09:27:22;81.65;;;37.85;;
63818;SDS011;49970;54.976;73.248;2023-02-18T09:29:53;75.13;;;33.42;;
63818;SDS011;49970;54.976;73.248;2023-02-18T09:32:29;72.82;;;34.25;;
63818;SDS011;49970;54.976;73.248;2023-02-18T09:34:55;74.60;;;34.70;;
63818;SDS011;49970;54.976;73.248;2023-02-18T09:37:21;74.35;;;33.65;;
63818;SDS011;49970;54.976;73.248;2023-02-18T09:39:55;72.43;;;34.40;;
63818;SDS011;49970;54.976;73.248;2023-02-18T09:42:28;79.57;;;32.72;;
63818;SDS011;49970;54.976;73.248;2023-02-18T09:45:06;79.07;;;31.85;;
63818;SDS011;49970;54.976;73.248;2023-02-18T09:47:42;64.35;;;31.95;;
63818;SDS011;49970;54.976;73.248;2023-02-18T09:52:49;67.35;;;33.13;;
63818;SDS011;49970;54.976;73.248;2023-02-18T09:55:20;84.32;;;34.63;;
63818;SDS011;49970;54.976;73.248;2023-02-18T09:57:54;84.22;;;34.20;;
63818;SDS011;49970;54.976;73.248;2023-02-18T10:03:13;81.38;;;34.63;;
63818;SDS011;49970;54.976;73.248;2023-02-18T10:05:47;93.13;;;38.00;;
63818;SDS011;49970;54.976;73.248;2023-02-18T10:08:26;73.28;;;35.90;;
63818;SDS011;49970;54.976;73.248;2023-02-18T10:10:55;78.47;;;32.03;;
63818;SDS011;49970;54.976;73.248;2023-02-18T10:13:22;94.55;;;36.20;;
63818;SDS011;49970;54.976;73.248;2023-02-18T10:15:51;85.70;;;33.55;;
63818;SDS011;49970;54.976;73.248;2023-02-18T10:21:03;83.88;;;34.13;;
63818;SDS011;49970;54.976;73.248;2023-02-18T10:24:13;84.65;;;36.95;;
63818;SDS011;49970;54.976;73.248;2023-02-18T10:26:35;87.95;;;35.25;;
63818;SDS011;49970;54.976;73.248;2023-02-18T10:29:14;79.40;;;34.67;;
63818;SDS011;49970;54.976;73.248;2023-02-18T10:31:43;95.90;;;37.60;;
63818;SDS011;49970;54.976;73.248;2023-02-18T10:34:19;117.95;;;44.28;;
63818;SDS011;49970;54.976;73.248;2023-02-18T10:36:49;84.75;;;33.05;;
63818;SDS011;49970;54.976;73.248;2023-02-18T10:39:56;70.22;;;30.98;;
63818;SDS011;49970;54.976;73.248;2023-02-18T10:48:05;80.68;;;31.38;;
63818;SDS011;49970;54.976;73.248;2023-02-18T10:50:51;79.43;;;33.90;;
63818;SDS011;49970;54.976;73.248;2023-02-18T10:53:27;72.07;;;34.20;;
63818;SDS011;49970;54.976;73.248;2023-02-18T10:55:59;87.00;;;35.45;;
63818;SDS011;49970;54.976;73.248;2023-02-18T10:58:27;86.45;;;33.80;;
63818;SDS011;49970;54.976;73.248;2023-02-18T11:00:57;75.93;;;35.55;;
63818;SDS011;49970;54.976;73.248;2023-02-18T11:03:42;68.82;;;32.85;;
63818;SDS011;49970;54.976;73.248;2023-02-18T11:09:15;82.63;;;35.92;;
63818;SDS011;49970;54.976;73.248;2023-02-18T11:12:05;65.75;;;30.00;;
63818;SDS011;49970;54.976;73.248;2023-02-18T11:14:43;70.00;;;33.25;;
63818;SDS011;49970;54.976;73.248;2023-02-18T11:17:16;63.15;;;27.88;;
63818;SDS011;49970;54.976;73.248;2023-02-18T11:19:55;57.65;;;27.55;;
63818;SDS011;49970;54.976;73.248;2023-02-18T11:22:30;65.15;;;27.83;;
63818;SDS011;49970;54.976;73.248;2023-02-18T11:25:17;59.45;;;26.08;;
63818;SDS011;49970;54.976;73.248;2023-02-18T11:27:50;67.30;;;30.13;;
63818;SDS011;49970;54.976;73.248;2023-02-18T11:30:21;66.40;;;28.98;;
63818;SDS011;49970;54.976;73.248;2023-02-18T11:32:58;54.97;;;27.13;;
63818;SDS011;49970;54.976;73.248;2023-02-18T11:35:55;59.50;;;27.23;;
63818;SDS011;49970;54.976;73.248;2023-02-18T11:38:36;58.55;;;28.95;;
63818;SDS011;49970;54.976;73.248;2023-02-18T11:41:10;56.22;;;29.60;;
63818;SDS011;49970;54.976;73.248;2023-02-18T11:43:41;68.30;;;28.30;;
63818;SDS011;49970;54.976;73.248;2023-02-18T11:46:18;51.50;;;27.48;;
63818;SDS011;49970;54.976;73.248;2023-02-18T11:48:53;53.67;;;27.33;;
63818;SDS011;49970;54.976;73.248;2023-02-18T11:52:31;63.90;;;28.67;;
63818;SDS011;49970;54.976;73.248;2023-02-18T11:55:17;61.50;;;29.73;;
63818;SDS011;49970;54.976;73.248;2023-02-18T11:58:01;54.95;;;26.45;;
63818;SDS011;49970;54.976;73.248;2023-02-18T12:00:39;62.13;;;28.45;;
63818;SDS011;49970;54.976;73.248;2023-02-18T12:06:04;53.42;;;28.48;;
63818;SDS011;49970;54.976;73.248;2023-02-18T12:09:34;76.57;;;33.08;;
63818;SDS011;49970;54.976;73.248;2023-02-18T12:11:57;68.13;;;31.13;;
63818;SDS011;49970;54.976;73.248;2023-02-18T12:14:38;109.15;;;40.50;;
63818;SDS011;49970;54.976;73.248;2023-02-18T12:17:21;102.20;;;35.40;;
63818;SDS011;49970;54.976;73.248;2023-02-18T12:26:50;79.20;;;35.08;;
63818;SDS011;49970;54.976;73.248;2023-02-18T12:32:28;83.85;;;36.63;;
63818;SDS011;49970;54.976;73.248;2023-02-18T12:35:25;82.30;;;35.35;;
63818;SDS011;49970;54.976;73.248;2023-02-18T12:42:00;89.43;;;35.13;;
63818;SDS011;49970;54.976;73.248;2023-02-18T12:45:07;97.65;;;37.28;;
63818;SDS011;49970;54.976;73.248;2023-02-18T12:48:07;85.25;;;36.83;;
63818;SDS011;49970;54.976;73.248;2023-02-18T12:59:26;77.35;;;33.97;;
63818;SDS011;49970;54.976;73.248;2023-02-18T13:16:47;72.60;;;33.28;;
63818;SDS011;49970;54.976;73.248;2023-02-18T13:22:03;75.45;;;34.80;;
63818;SDS011;49970;54.976;73.248;2023-02-18T13:24:35;68.07;;;33.05;;
63818;SDS011;49970;54.976;73.248;2023-02-18T13:30:15;70.82;;;34.92;;
63818;SDS011;49970;54.976;73.248;2023-02-18T13:41:02;81.78;;;37.78;;
63818;SDS011;49970;54.976;73.248;2023-02-18T13:43:35;85.45;;;37.00;;
63818;SDS011;49970;54.976;73.248;2023-02-18T13:46:17;80.57;;;36.00;;
63818;SDS011;49970;54.976;73.248;2023-02-18T13:48:49;77.78;;;33.22;;
63818;SDS011;49970;54.976;73.248;2023-02-18T13:58:49;67.55;;;30.75;;
63818;SDS011;49970;54.976;73.248;2023-02-18T14:01:37;72.07;;;31.98;;
63818;SDS011;49970;54.976;73.248;2023-02-18T14:28:51;71.47;;;35.60;;
63818;SDS011;49970;54.976;73.248;2023-02-18T14:31:29;83.57;;;37.33;;
63818;SDS011;49970;54.976;73.248;2023-02-18T14:42:42;89.10;;;42.22;;
63818;SDS011;49970;54.976;73.248;2023-02-18T14:50:56;83.50;;;40.17;;
63818;SDS011;49970;54.976;73.248;2023-02-18T14:53:29;88.57;;;38.35;;
63818;SDS011;49970;54.976;73.248;2023-02-18T14:56:06;77.13;;;36.40;;
63818;SDS011;49970;54.976;73.248;2023-02-18T14:58:42;78.97;;;37.03;;
63818;SDS011;49970;54.976;73.248;2023-02-18T15:01:19;84.30;;;38.60;;
63818;SDS011;49970;54.976;73.248;2023-02-18T15:03:47;85.22;;;38.38;;
63818;SDS011;49970;54.976;73.248;2023-02-18T15:06:23;86.55;;;37.90;;
63818;SDS011;49970;54.976;73.248;2023-02-18T15:08:56;81.30;;;37.70;;
63818;SDS011;49970;54.976;73.248;2023-02-18T15:12:08;85.63;;;38.88;;
63818;SDS011;49970;54.976;73.248;2023-02-18T15:14:31;84.22;;;37.60;;
63818;SDS011;49970;54.976;73.248;2023-02-18T15:17:03;96.32;;;38.47;;
63818;SDS011;49970;54.976;73.248;2023-02-18T15:19:36;87.55;;;37.72;;
63818;SDS011;49970;54.976;73.248;2023-02-18T15:22:17;89.22;;;38.58;;
63818;SDS011;49970;54.976;73.248;2023-02-18T15:24:46;83.47;;;34.72;;
63818;SDS011;49970;54.976;73.248;2023-02-18T15:27:29;85.53;;;37.95;;
63818;SDS011;49970;54.976;73.248;2023-02-18T15:33:09;80.78;;;35.38;;
63818;SDS011;49970;54.976;73.248;2023-02-18T15:35:39;84.35;;;37.55;;
63818;SDS011;49970;54.976;73.248;2023-02-18T15:38:19;82.18;;;37.95;;
63818;SDS011;49970;54.976;73.248;2023-02-18T15:40:47;80.50;;;36.90;;
63818;SDS011;49970;54.976;73.248;2023-02-18T15:43:21;79.30;;;36.10;;
63818;SDS011;49970;54.976;73.248;2023-02-18T15:45:59;88.97;;;37.87;;
63818;SDS011;49970;54.976;73.248;2023-02-18T15:48:32;97.03;;;39.97;;
63818;SDS011;49970;54.976;73.248;2023-02-18T15:51:04;103.53;;;42.80;;
63818;SDS011;49970;54.976;73.248;2023-02-18T15:53:37;89.03;;;40.65;;
63818;SDS011;49970;54.976;73.248;2023-02-18T15:59:09;104.70;;;43.95;;
63818;SDS011;49970;54.976;73.248;2023-02-18T16:01:49;99.03;;;40.58;;
63818;SDS011;49970;54.976;73.248;2023-02-18T16:04:21;101.13;;;43.95;;
63818;SDS011;49970;54.976;73.248;2023-02-18T16:06:50;102.28;;;44.22;;
63818;SDS011;49970;54.976;73.248;2023-02-18T16:09:30;106.43;;;47.13;;
63818;SDS011;49970;54.976;73.248;2023-02-18T16:12:12;105.50;;;46.13;;
63818;SDS011;49970;54.976;73.248;2023-02-18T16:14:52;94.50;;;39.67;;
63818;SDS011;49970;54.976;73.248;2023-02-18T16:17:21;100.90;;;42.72;;
63818;SDS011;49970;54.976;73.248;2023-02-18T16:25:23;90.85;;;42.33;;
63818;SDS011;49970;54.976;73.248;2023-02-18T16:27:51;99.60;;;41.22;;
63818;SDS011;49970;54.976;73.248;2023-02-18T16:30:19;95.32;;;40.63;;
63818;SDS011;49970;54.976;73.248;2023-02-18T16:32:48;91.65;;;42.33;;
63818;SDS011;49970;54.976;73.248;2023-02-18T16:35:16;98.43;;;41.45;;
63818;SDS011;49970;54.976;73.248;2023-02-18T16:37:53;105.78;;;45.83;;
63818;SDS011;49970;54.976;73.248;2023-02-18T16:40:40;98.85;;;42.63;;
63818;SDS011;49970;54.976;73.248;2023-02-18T16:43:10;97.47;;;42.75;;
63818;SDS011;49970;54.976;73.248;2023-02-18T16:45:43;102.63;;;43.00;;
63818;SDS011;49970;54.976;73.248;2023-02-18T16:48:34;101.88;;;45.22;;
63818;SDS011;49970;54.976;73.248;2023-02-18T16:51:02;93.65;;;42.30;;
63818;SDS011;49970;54.976;73.248;2023-02-18T16:53:31;98.57;;;41.22;;
63818;SDS011;49970;54.976;73.248;2023-02-18T16:55:58;92.22;;;41.00;;
63818;SDS011;49970;54.976;73.248;2023-02-18T16:58:26;89.10;;;40.28;;
63818;SDS011;49970;54.976;73.248;2023-02-18T17:00:52;85.75;;;42.22;;
63818;SDS011;49970;54.976;73.248;2023-02-18T17:03:19;96.90;;;41.20;;
63818;SDS011;49970;54.976;73.248;2023-02-18T17:05:47;89.13;;;39.88;;
63818;SDS011;49970;54.976;73.248;2023-02-18T17:10:46;100.15;;;43.90;;
63818;SDS011;49970;54.976;73.248;2023-02-18T17:13:25;103.75;;;42.90;;
63818;SDS011;49970;54.976;73.248;2023-02-18T17:15:54;104.63;;;44.67;;
63818;SDS011;49970;54.976;73.248;2023-02-18T17:18:21;101.80;;;43.17;;
63818;SDS011;49970;54.976;73.248;2023-02-18T17:20:49;105.88;;;45.63;;
63818;SDS011;49970;54.976;73.248;2023-02-18T17:23:21;98.82;;;42.17;;
63818;SDS011;49970;54.976;73.248;2023-02-18T17:25:49;99.43;;;45.85;;
63818;SDS011;49970;54.976;73.248;2023-02-18T17:28:22;91.80;;;39.78;;
63818;SDS011;49970;54.976;73.248;2023-02-18T17:30:54;100.40;;;41.60;;
63818;SDS011;49970;54.976;73.248;2023-02-18T17:33:22;98.38;;;40.25;;
63818;SDS011;49970;54.976;73.248;2023-02-18T17:35:50;84.28;;;38.47;;
63818;SDS011;49970;54.976;73.248;2023-02-18T17:38:17;98.32;;;44.05;;
63818;SDS011;49970;54.976;73.248;2023-02-18T17:40:44;99.35;;;42.75;;
63818;SDS011;49970;54.976;73.248;2023-02-18T17:43:11;98.55;;;42.50;;
63818;SDS011;49970;54.976;73.248;2023-02-18T17:45:41;106.80;;;42.50;;
63818;SDS011;49970;54.976;73.248;2023-02-18T17:48:13;94.25;;;42.00;;